sensor_id;sensor_type;location;lat;lon;timestamp;P1;durP1;ratioP1;P2;durP2;ratioP2
63581;SDS011;49727;51.078;17.066;2024-01-15T00:06:00;10.00;;;4.72;;
63581;SDS011;49727;51.078;17.066;2024-01-15T00:21:00;8.07;;;4.18;;
63581;SDS011;49727;51.078;17.066;2024-01-15T00:36:00;6.30;;;3.30;;
63581;SDS011;49727;51.078;17.066;2024-01-15T00:51:01;7.90;;;4.35;;
63581;SDS011;49727;51.078;17.066;2024-01-15T01:06:02;8.77;;;5.18;;
63581;SDS011;49727;51.078;17.066;2024-01-15T01:21:03;8.57;;;4.60;;
63581;SDS011;49727;51.078;17.066;2024-01-15T01:36:06;10.45;;;5.05;;
63581;SDS011;49727;51.078;17.066;2024-01-15T01:51:07;7.63;;;4.43;;
63581;SDS011;49727;51.078;17.066;2024-01-15T02:06:08;7.60;;;4.70;;
63581;SDS011;49727;51.078;17.066;2024-01-15T02:21:08;8.73;;;5.05;;
63581;SDS011;49727;51.078;17.066;2024-01-15T02:36:10;8.75;;;4.95;;
63581;SDS011;49727;51.078;17.066;2024-01-15T02:51:10;7.38;;;4.28;;
63581;SDS011;49727;51.078;17.066;2024-01-15T03:06:10;9.20;;;4.75;;
63581;SDS011;49727;51.078;17.066;2024-01-15T03:21:11;7.22;;;4.22;;
63581;SDS011;49727;51.078;17.066;2024-01-15T03:36:11;7.18;;;3.60;;
63581;SDS011;49727;51.078;17.066;2024-01-15T03:51:11;6.72;;;3.85;;
63581;SDS011;49727;51.078;17.066;2024-01-15T04:06:12;8.15;;;3.70;;
63581;SDS011;49727;51.078;17.066;2024-01-15T04:21:12;7.53;;;4.22;;
63581;SDS011;49727;51.078;17.066;2024-01-15T04:36:12;6.25;;;4.38;;
63581;SDS011;49727;51.078;17.066;2024-01-15T04:51:13;6.78;;;4.38;;
63581;SDS011;49727;51.078;17.066;2024-01-15T05:06:13;5.88;;;3.35;;
63581;SDS011;49727;51.078;17.066;2024-01-15T05:21:13;5.70;;;3.67;;
63581;SDS011;49727;51.078;17.066;2024-01-15T05:36:13;7.00;;;3.55;;
63581;SDS011;49727;51.078;17.066;2024-01-15T05:51:14;6.70;;;3.67;;
63581;SDS011;49727;51.078;17.066;2024-01-15T06:06:14;5.22;;;3.15;;
63581;SDS011;49727;51.078;17.066;2024-01-15T06:21:14;8.38;;;4.03;;
63581;SDS011;49727;51.078;17.066;2024-01-15T06:36:16;7.78;;;4.53;;
63581;SDS011;49727;51.078;17.066;2024-01-15T06:51:16;7.03;;;3.50;;
63581;SDS011;49727;51.078;17.066;2024-01-15T07:06:16;6.43;;;3.10;;
63581;SDS011;49727;51.078;17.066;2024-01-15T07:21:17;5.90;;;3.53;;
63581;SDS011;49727;51.078;17.066;2024-01-15T07:36:17;6.65;;;4.45;;
63581;SDS011;49727;51.078;17.066;2024-01-15T07:51:17;8.63;;;3.58;;
63581;SDS011;49727;51.078;17.066;2024-01-15T08:06:18;6.38;;;3.97;;
63581;SDS011;49727;51.078;17.066;2024-01-15T08:21:18;6.28;;;2.80;;
63581;SDS011;49727;51.078;17.066;2024-01-15T08:36:19;3.92;;;1.85;;
63581;SDS011;49727;51.078;17.066;2024-01-15T08:51:19;5.13;;;2.67;;
63581;SDS011;49727;51.078;17.066;2024-01-15T09:06:19;4.28;;;1.92;;
63581;SDS011;49727;51.078;17.066;2024-01-15T09:21:20;5.32;;;2.22;;
63581;SDS011;49727;51.078;17.066;2024-01-15T09:36:21;4.97;;;2.08;;
63581;SDS011;49727;51.078;17.066;2024-01-15T09:51:21;3.67;;;1.58;;
63581;SDS011;49727;51.078;17.066;2024-01-15T10:06:22;4.50;;;2.03;;
63581;SDS011;49727;51.078;17.066;2024-01-15T10:21:22;3.08;;;1.90;;
63581;SDS011;49727;51.078;17.066;2024-01-15T10:36:22;4.93;;;1.95;;
63581;SDS011;49727;51.078;17.066;2024-01-15T10:51:23;4.20;;;1.77;;
63581;SDS011;49727;51.078;17.066;2024-01-15T11:06:26;8.93;;;2.60;;
63581;SDS011;49727;51.078;17.066;2024-01-15T11:21:29;4.80;;;2.17;;
63581;SDS011;49727;51.078;17.066;2024-01-15T11:51:48;5.18;;;2.50;;
63581;SDS011;49727;51.078;17.066;2024-01-15T12:06:49;5.55;;;2.50;;
63581;SDS011;49727;51.078;17.066;2024-01-15T12:21:52;6.97;;;2.70;;
63581;SDS011;49727;51.078;17.066;2024-01-15T12:36:53;7.63;;;2.70;;
63581;SDS011;49727;51.078;17.066;2024-01-15T12:51:53;7.20;;;2.45;;
63581;SDS011;49727;51.078;17.066;2024-01-15T13:06:54;4.22;;;2.13;;
63581;SDS011;49727;51.078;17.066;2024-01-15T13:21:54;5.10;;;2.55;;
63581;SDS011;49727;51.078;17.066;2024-01-15T13:36:54;4.25;;;2.20;;
63581;SDS011;49727;51.078;17.066;2024-01-15T13:51:55;7.40;;;2.58;;
63581;SDS011;49727;51.078;17.066;2024-01-15T14:06:56;5.05;;;2.40;;
63581;SDS011;49727;51.078;17.066;2024-01-15T14:21:56;11.50;;;4.70;;
63581;SDS011;49727;51.078;17.066;2024-01-15T14:36:56;8.25;;;4.45;;
63581;SDS011;49727;51.078;17.066;2024-01-15T14:51:57;8.52;;;4.20;;
63581;SDS011;49727;51.078;17.066;2024-01-15T15:06:57;13.80;;;4.03;;
63581;SDS011;49727;51.078;17.066;2024-01-15T15:21:58;4.60;;;2.53;;
63581;SDS011;49727;51.078;17.066;2024-01-15T15:36:59;7.43;;;3.50;;
63581;SDS011;49727;51.078;17.066;2024-01-15T15:51:59;7.70;;;3.55;;
63581;SDS011;49727;51.078;17.066;2024-01-15T16:07:00;8.50;;;3.83;;
63581;SDS011;49727;51.078;17.066;2024-01-15T16:22:01;7.93;;;3.40;;
63581;SDS011;49727;51.078;17.066;2024-01-15T16:37:01;8.05;;;4.57;;
63581;SDS011;49727;51.078;17.066;2024-01-15T16:52:02;5.75;;;3.08;;
63581;SDS011;49727;51.078;17.066;2024-01-15T17:07:03;8.18;;;3.55;;
63581;SDS011;49727;51.078;17.066;2024-01-15T17:22:04;7.13;;;3.35;;
63581;SDS011;49727;51.078;17.066;2024-01-15T17:37:04;11.43;;;4.10;;
63581;SDS011;49727;51.078;17.066;2024-01-15T17:52:05;7.72;;;3.47;;
63581;SDS011;49727;51.078;17.066;2024-01-15T18:07:05;5.47;;;2.83;;
63581;SDS011;49727;51.078;17.066;2024-01-15T18:22:05;5.22;;;2.78;;
63581;SDS011;49727;51.078;17.066;2024-01-15T18:37:06;7.18;;;2.97;;
63581;SDS011;49727;51.078;17.066;2024-01-15T18:52:06;6.47;;;3.15;;
63581;SDS011;49727;51.078;17.066;2024-01-15T19:07:06;12.40;;;3.78;;
63581;SDS011;49727;51.078;17.066;2024-01-15T19:22:07;3.70;;;2.17;;
63581;SDS011;49727;51.078;17.066;2024-01-15T19:37:08;5.18;;;3.15;;
63581;SDS011;49727;51.078;17.066;2024-01-15T19:52:08;7.18;;;3.63;;
63581;SDS011;49727;51.078;17.066;2024-01-15T20:07:09;5.78;;;3.25;;
63581;SDS011;49727;51.078;17.066;2024-01-15T20:22:10;6.70;;;3.35;;
63581;SDS011;49727;51.078;17.066;2024-01-15T20:37:10;7.30;;;3.95;;
63581;SDS011;49727;51.078;17.066;2024-01-15T20:52:10;8.65;;;3.65;;
63581;SDS011;49727;51.078;17.066;2024-01-15T21:07:11;9.27;;;4.30;;
63581;SDS011;49727;51.078;17.066;2024-01-15T21:22:11;9.70;;;4.72;;
63581;SDS011;49727;51.078;17.066;2024-01-15T21:37:11;6.53;;;3.85;;
63581;SDS011;49727;51.078;17.066;2024-01-15T21:52:12;7.25;;;4.15;;
63581;SDS011;49727;51.078;17.066;2024-01-15T22:07:12;7.18;;;4.03;;
63581;SDS011;49727;51.078;17.066;2024-01-15T22:22:12;7.28;;;3.35;;
63581;SDS011;49727;51.078;17.066;2024-01-15T22:37:13;7.00;;;3.53;;
63581;SDS011;49727;51.078;17.066;2024-01-15T22:52:13;8.48;;;4.15;;
63581;SDS011;49727;51.078;17.066;2024-01-15T23:07:14;7.72;;;3.63;;
63581;SDS011;49727;51.078;17.066;2024-01-15T23:22:15;9.98;;;4.13;;
63581;SDS011;49727;51.078;17.066;2024-01-15T23:37:15;6.03;;;3.63;;
63581;SDS011;49727;51.078;17.066;2024-01-15T23:52:15;9.15;;;4.00;;
